Home > Products > Valid Products > TAF

000
FTUS41 KPHI 270851 AAA
TAFPHL
TAF AMD
KPHL 270851Z 2709/2812 19006KT P6SM SCT015 BKN120
      TEMPO 2710/2714 BKN015
     FM271500 22010G18KT P6SM SCT030
     FM271900 21014G22KT P6SM BKN045 PROB30 2722/2724 -TSRA OVC035CB
     FM280100 20009KT P6SM BKN120=



000
FTUS41 KPHI 270548
TAFTTN
TAF
KTTN 270548Z 2706/2806 20008KT P6SM SCT200
     FM270900 20004KT P6SM SCT015 BKN120
      TEMPO 2710/2714 6SM BR BKN015
     FM271500 23010G18KT P6SM SCT030
     FM271900 20012G20KT P6SM BKN045
     FM280100 21007KT P6SM BKN100=



000
FTUS41 KPHI 270548
TAFPNE
TAF
KPNE 270548Z 2706/2806 20005KT P6SM SCT050 BKN200
     FM270900 20004KT P6SM SCT015 BKN120
      TEMPO 2710/2714 BKN015
     FM271500 23010G18KT P6SM SCT030
     FM271900 21013G21KT P6SM BKN045
     FM280100 20007KT P6SM BKN120=



000
FTUS41 KPHI 270548
TAFRDG
TAF
KRDG 270548Z 2706/2806 18007KT P6SM SCT120
     FM271000 19004KT P6SM SCT015 BKN100
      TEMPO 2710/2713 4SM BR BKN010
     FM271500 21009KT P6SM SCT025
     FM271700 23009G17KT P6SM BKN035 PROB30 2719/2723 TSRA OVC030CB
     FM280000 21006KT P6SM SCT100 BKN200=



000
FTUS41 KPHI 270548
TAFABE
TAF
KABE 270548Z 2706/2806 21008KT P6SM SCT150
     FM271000 20005KT P6SM SCT015 BKN100
      TEMPO 2710/2713 4SM BR BKN010
     FM271500 21010KT P6SM SCT020
     FM271700 23010G17KT P6SM BKN035 PROB30 2720/2724 TSRA OVC030CB
     FM280000 21006KT P6SM SCT100 BKN200=



000
FTUS41 KPHI 270548
TAFACY
TAF
KACY 270548Z 2706/2806 20011KT P6SM SCT050 BKN200
     FM270700 20008KT P6SM SCT030 BKN050
      TEMPO 2710/2713 BKN020
     FM271500 21012G19KT P6SM SCT030
     FM271900 17014G23KT P6SM BKN045
     FM280000 20012KT P6SM SCT120=



000
FTUS41 KPHI 270548
TAFMIV
TAF
KMIV 270548Z 2706/2806 17004KT P6SM SCT050 SCT200
     FM270800 20004KT P6SM SCT020 BKN120
      TEMPO 2709/2713 BKN015
     FM271500 20008G15KT P6SM SCT030
     FM272000 19011G19KT P6SM BKN045
     FM280000 20009KT P6SM BKN120=



000
FTUS41 KPHI 270548
TAFPHL
TAF
KPHL 270548Z 2706/2812 20007KT P6SM SCT050 BKN200
     FM270900 20004KT P6SM SCT015 BKN120
      TEMPO 2710/2714 BKN015
     FM271500 22010G18KT P6SM SCT030
     FM271900 21014G22KT P6SM BKN045
     FM280100 20009KT P6SM BKN120=



000
FTUS41 KPHI 270548
TAFILG
TAF
KILG 270548Z 2706/2806 19005KT P6SM BKN045 BKN200
     FM270800 20004KT P6SM SCT020 BKN120
      TEMPO 2709/2713 BKN015
     FM271500 21010G18KT P6SM SCT030
     FM271900 18013G22KT P6SM BKN045
     FM280100 20009KT P6SM BKN120=



000
FTUS41 KPHI 262330
TAFRDG
TAF
KRDG 262330Z 2700/2724 18006KT P6SM SCT100
     FM270800 19004KT 4SM BR SCT015 BKN100
      TEMPO 2710/2714 BKN015
     FM271500 22008KT P6SM SCT045
     FM271800 22008KT P6SM BKN045 PROB30 2719/2723 TSRA OVC030CB=



000
FTUS41 KPHI 262330
TAFILG
TAF
KILG 262330Z 2700/2724 19006KT P6SM SCT100
     FM270800 19006KT P6SM SCT010 BKN100
      TEMPO 2710/2714 4SM BR BKN010
     FM271500 19010G18KT P6SM SCT045=



000
FTUS41 KPHI 262330
TAFTTN
TAF
KTTN 262330Z 2700/2724 20006KT P6SM SCT100
     FM270800 20004KT P6SM SCT015 BKN100
      TEMPO 2710/2714 4SM BR BKN015
     FM271500 21010G18KT P6SM SCT045=



000
FTUS41 KPHI 262330
TAFPNE
TAF
KPNE 262330Z 2700/2724 21006KT P6SM SCT100
     FM270800 20006KT P6SM SCT015 BKN100
      TEMPO 2710/2714 4SM BR BKN015
     FM271500 22010G18KT P6SM SCT045=



000
FTUS41 KPHI 262330
TAFPHL
TAF
KPHL 262330Z 2700/2806 20008KT P6SM SCT100
     FM270800 21008KT P6SM SCT015 BKN100
      TEMPO 2710/2714 4SM BR BKN015
     FM271500 21010G18KT P6SM SCT045
     FM280000 20008KT P6SM BKN045=



000
FTUS41 KPHI 262330
TAFMIV
TAF
KMIV 262330Z 2700/2724 18004KT P6SM SCT100
     FM270800 20004KT 4SM BR SCT010 BKN100
      TEMPO 2710/2714 BKN010
     FM271500 19008G16KT P6SM SCT045=



000
FTUS41 KPHI 262330
TAFABE
TAF
KABE 262330Z 2700/2724 19006KT P6SM SCT100
     FM270800 20004KT P6SM SCT015 BKN100
      TEMPO 2710/2714 4SM BR BKN015
     FM271500 21008KT P6SM SCT045
     FM271800 22010KT P6SM BKN045 PROB30 2719/2723 TSRA OVC030CB=



000
FTUS41 KPHI 262330
TAFACY
TAF
KACY 262330Z 2700/2724 19010KT P6SM SCT100
     FM270800 20008KT P6SM SCT015 BKN100
      TEMPO 2710/2714 4SM BR BKN015
     FM271500 19012G20KT P6SM SCT045=



000
FTUS41 KPHI 262105 AAA
TAFRDG
TAF AMD
KRDG 262105Z 2621/2718 20010KT P6SM SCT050 BKN250
     FM270000 18006KT P6SM SCT050 BKN120
     FM270800 19004KT 3SM BR SCT015 BKN100
      TEMPO 2712/2715 BKN015
     FM271500 22010KT P6SM BKN035=



000
FTUS41 KPHI 262105 AAA
TAFRDG
TAF AMD
KRDG 262105Z 2621/2718 20010KT P6SM SCT050 BKN250
     FM270000 18006KT P6SM SCT050 BKN120
     FM270800 19004KT 3SM BR SCT015 BKN100
      TEMPO 2712/2715 BKN015
     FM271500 22010KT P6SM BKN035=



000
FTUS41 KPHI 262105 AAA
TAFABE
TAF AMD
KABE 262105Z 2621/2718 22010KT P6SM SCT050 BKN250
     FM270100 20009KT P6SM SCT050 BKN120
     FM270800 19004KT 4SM BR SCT015 BKN100
      TEMPO 2711/2715 BKN015
     FM271500 20010KT P6SM BKN035=



000
FTUS41 KPHI 262105 AAA
TAFABE
TAF AMD
KABE 262105Z 2621/2718 22010KT P6SM SCT050 BKN250
     FM270100 20009KT P6SM SCT050 BKN120
     FM270800 19004KT 4SM BR SCT015 BKN100
      TEMPO 2711/2715 BKN015
     FM271500 20010KT P6SM BKN035=



000
FTUS41 KPHI 262103 AAA
TAFPHL
TAF AMD
KPHL 262103Z 2621/2724 21010G20KT P6SM SCT050 BKN250
     FM270000 20010KT P6SM SCT050 BKN140
     FM271000 20006KT P6SM SCT020 BKN100
      TEMPO 2710/2714 5SM BR BKN020
     FM271500 22012KT P6SM BKN040=



000
FTUS41 KPHI 262103 AAA
TAFMIV
TAF AMD
KMIV 262103Z 2621/2718 16010KT P6SM FEW060
     FM262300 19005KT P6SM SCT050 BKN200
     FM270800 17004KT 3SM BR SCT010 BKN050
      TEMPO 2708/2712 BKN010
     FM271200 20003KT 2SM BR OVC010
     FM271400 19008KT P6SM BKN035=



000
FTUS41 KPHI 261824 AAA
TAFACY
TAF AMD
KACY 261824Z 2618/2718 17012G20KT P6SM FEW050
     FM270000 19011KT P6SM SCT050 BKN200
     FM270900 17004KT P6SM SCT010 BKN050
      TEMPO 2709/2713 BKN010
     FM271300 19012KT P6SM BKN035=



000
FTUS41 KPHI 261745
TAFTTN
TAF
KTTN 261745Z 2618/2718 20010G17KT P6SM SCT050 BKN250
     FM270000 18008KT P6SM SCT050 BKN140
     FM271000 19004KT P6SM SCT015 BKN100
      TEMPO 2710/2714 4SM BR BKN015
     FM271500 19010KT P6SM BKN035=



000
FTUS41 KPHI 261745
TAFRDG
TAF
KRDG 261745Z 2618/2718 21009G16KT P6SM SCT050 BKN250
     FM270000 18006KT P6SM SCT050 BKN120
     FM270800 19004KT 3SM BR SCT015 BKN100
      TEMPO 2712/2715 BKN015
     FM271500 22010KT P6SM BKN035=



000
FTUS41 KPHI 261745
TAFABE
TAF
KABE 261745Z 2618/2718 22009G17KT P6SM SCT050 BKN250
     FM270100 20009KT P6SM SCT050 BKN120
     FM270800 19004KT 4SM BR SCT015 BKN100
      TEMPO 2711/2715 BKN015
     FM271500 20010KT P6SM BKN035=



000
FTUS41 KPHI 261745
TAFMIV
TAF
KMIV 261745Z 2618/2718 20008G16KT P6SM FEW050
     FM262300 19005KT P6SM SCT050 BKN200
     FM270800 17004KT 3SM BR SCT010 BKN050
      TEMPO 2708/2712 BKN010
     FM271200 20003KT 2SM BR OVC010
     FM271400 19008KT P6SM BKN035=



000
FTUS41 KPHI 261745
TAFPNE
TAF
KPNE 261745Z 2618/2718 21010G17KT P6SM SCT050 BKN250
     FM270000 19008KT P6SM SCT050 BKN140
     FM271000 20005KT P6SM SCT018 BKN100
      TEMPO 2710/2714 4SM BR BKN018
     FM271500 22010KT P6SM BKN035=



000
FTUS41 KPHI 261745
TAFPHL
TAF
KPHL 261745Z 2618/2724 21011G19KT P6SM SCT050 BKN250
     FM270000 20010KT P6SM SCT050 BKN140
     FM271000 20006KT P6SM SCT020 BKN100
      TEMPO 2710/2714 5SM BR BKN020
     FM271500 22012KT P6SM BKN040=



000
FTUS41 KPHI 261745
TAFACY
TAF
KACY 261745Z 2618/2718 19012G20KT P6SM FEW050
     FM270000 19011KT P6SM SCT050 BKN200
     FM270900 17004KT P6SM SCT010 BKN050
      TEMPO 2709/2713 BKN010
     FM271300 19012KT P6SM BKN035=



000
FTUS41 KPHI 261745
TAFILG
TAF
KILG 261745Z 2618/2718 19010G18KT P6SM SCT050 BKN250
     FM262300 17008KT P6SM SCT050 BKN150
     FM271000 17006KT P6SM SCT012 BKN100
      TEMPO 2710/2714 4SM BR BKN012
     FM271500 19009KT P6SM BKN035=



000
FTUS41 KPHI 261745
TAFRDG
TAF
KRDG 261745Z 2618/2718 21009G16KT P6SM SCT050 BKN250
     FM270000 18006KT P6SM SCT050 BKN120
     FM270800 19004KT 3SM BR SCT015 BKN100
      TEMPO 2712/2715 BKN015
     FM271500 22010KT P6SM BKN035=



000
FTUS41 KPHI 261745
TAFPNE
TAF
KPNE 261745Z 2618/2718 21010G17KT P6SM SCT050 BKN250
     FM270000 19008KT P6SM SCT050 BKN140
     FM271000 20005KT P6SM SCT018 BKN100
      TEMPO 2710/2714 4SM BR BKN018
     FM271500 22010KT P6SM BKN035=



000
FTUS41 KPHI 261745
TAFTTN
TAF
KTTN 261745Z 2618/2718 20010G17KT P6SM SCT050 BKN250
     FM270000 18008KT P6SM SCT050 BKN140
     FM271000 19004KT P6SM SCT015 BKN100
      TEMPO 2710/2714 4SM BR BKN015
     FM271500 19010KT P6SM BKN035=



000
FTUS41 KPHI 261745
TAFABE
TAF
KABE 261745Z 2618/2718 22009G17KT P6SM SCT050 BKN250
     FM270100 20009KT P6SM SCT050 BKN120
     FM270800 19004KT 4SM BR SCT015 BKN100
      TEMPO 2711/2715 BKN015
     FM271500 20010KT P6SM BKN035=



000
FTUS41 KPHI 261745
TAFPHL
TAF
KPHL 261745Z 2618/2724 21011G19KT P6SM SCT050 BKN250
     FM270000 20010KT P6SM SCT050 BKN140
     FM271000 20006KT P6SM SCT020 BKN100
      TEMPO 2710/2714 5SM BR BKN020
     FM271500 22012KT P6SM BKN040=



000
FTUS41 KPHI 261745
TAFMIV
TAF
KMIV 261745Z 2618/2718 20008G16KT P6SM FEW050
     FM262300 19005KT P6SM SCT050 BKN200
     FM270800 17004KT 3SM BR SCT010 BKN050
      TEMPO 2708/2712 BKN010
     FM271200 20003KT 2SM BR OVC010
     FM271400 19008KT P6SM BKN035=



000
FTUS41 KPHI 261745
TAFILG
TAF
KILG 261745Z 2618/2718 19010G18KT P6SM SCT050 BKN250
     FM262300 17008KT P6SM SCT050 BKN150
     FM271000 17006KT P6SM SCT012 BKN100
      TEMPO 2710/2714 4SM BR BKN012
     FM271500 19009KT P6SM BKN035=



000
FTUS41 KPHI 261745
TAFACY
TAF
KACY 261745Z 2618/2718 19012G20KT P6SM FEW050
     FM270000 19011KT P6SM SCT050 BKN200
     FM270900 17004KT P6SM SCT010 BKN050
      TEMPO 2709/2713 BKN010
     FM271300 19012KT P6SM BKN035=



000
FTUS41 KPHI 261444 AAA
TAFPHL
TAF AMD
KPHL 261444Z 2615/2718 22011G19KT P6SM FEW050
     FM270100 20008KT P6SM BKN120
     FM270900 17006KT P6SM FEW020 SCT100
     FM271300 20010KT P6SM FEW040 SCT200=



000
FTUS41 KPHI 261120
TAFRDG
TAF
KRDG 261120Z 2612/2712 VRB03KT P6SM SKC
     FM261400 22008KT P6SM FEW060 SCT150
     FM261800 19009G16KT P6SM SCT050 BKN150
     FM270100 18006KT P6SM OVC100
     FM270800 19004KT 5SM BR FEW020 BKN100=



000
FTUS41 KPHI 261120
TAFTTN
TAF
KTTN 261120Z 2612/2712 21006KT P6SM SKC
     FM261700 22010G18KT P6SM FEW050 SCT150
     FM270100 19007KT P6SM BKN120
     FM270900 17006KT P6SM FEW020 SCT100=



000
FTUS41 KPHI 261120
TAFPNE
TAF
KPNE 261120Z 2612/2712 21008KT P6SM SKC
     FM261700 22011G19KT P6SM FEW050 SCT150
     FM270100 20007KT P6SM BKN120
     FM270900 17006KT P6SM FEW020 SCT100=



000
FTUS41 KPHI 261120
TAFACY
TAF
KACY 261120Z 2612/2712 21008KT P6SM SKC
     FM261500 22011G18KT P6SM SCT200
     FM262000 18013G20KT P6SM FEW050
     FM270000 19009KT P6SM SCT150
     FM270900 17006KT P6SM SCT020=



000
FTUS41 KPHI 261120
TAFILG
TAF
KILG 261120Z 2612/2712 21008KT P6SM SKC
     FM261700 20011G19KT P6SM FEW050 SCT150
     FM270100 19008KT P6SM BKN150
     FM270900 18006KT P6SM SCT020=



000
FTUS41 KPHI 261120
TAFPHL
TAF
KPHL 261120Z 2612/2718 20009KT P6SM FEW150
     FM261700 21012G19KT P6SM FEW050 SCT150
     FM270100 20008KT P6SM BKN120
     FM270900 17006KT P6SM FEW020 SCT100
     FM271300 20010KT P6SM FEW040 SCT200=



000
FTUS41 KPHI 261120
TAFMIV
TAF
KMIV 261120Z 2612/2712 VRB03KT P6SM SKC
     FM261400 22008KT P6SM SKC
     FM261700 20009G17KT P6SM FEW050 SCT150
     FM270000 17007KT P6SM SCT150
     FM270800 19004KT 5SM BR FEW020=



000
FTUS41 KPHI 261120
TAFABE
TAF
KABE 261120Z 2612/2712 22007KT P6SM SCT150
     FM261800 20009G16KT P6SM SCT050 BKN150
     FM270100 19006KT P6SM OVC100
     FM270800 19004KT 5SM BR FEW020 BKN100=



000
FTUS41 KPHI 260840 AAA
TAFPHL
TAF AMD
KPHL 260840Z 2609/2712 20007KT P6SM FEW250
     FM261600 21011G19KT P6SM FEW050 SCT200
     FM270000 20008KT P6SM BKN120
     FM270400 17006KT P6SM FEW020 SCT100=



000
FTUS41 KPHI 260540
TAFRDG
TAF
KRDG 260540Z 2606/2706 19004KT P6SM FEW250
     FM261300 22007KT P6SM FEW060 SCT250
     FM261800 19010G17KT P6SM SCT050 BKN150
     FM270000 18006KT P6SM OVC120=



000
FTUS41 KPHI 260540
TAFTTN
TAF
KTTN 260540Z 2606/2706 20007KT P6SM SKC
     FM261800 22010G18KT P6SM FEW050 SCT200
     FM270000 19007KT P6SM BKN120=



000
FTUS41 KPHI 260540
TAFACY
TAF
KACY 260540Z 2606/2706 19008KT P6SM SKC
     FM261500 21011G18KT P6SM SCT200
     FM262000 18013G19KT P6SM FEW050
     FM270000 19008KT P6SM SCT150=



000
FTUS41 KPHI 260540
TAFABE
TAF
KABE 260540Z 2606/2706 21005KT P6SM SCT250
     FM261300 23007KT P6SM FEW070 SCT250
     FM261800 20009G17KT P6SM SCT050 BKN150
     FM270000 19006KT P6SM OVC120=



000
FTUS41 KPHI 260540
TAFPHL
TAF
KPHL 260540Z 2606/2712 20006KT P6SM SKC
     FM261600 21011G19KT P6SM FEW050 SCT200
     FM270000 20008KT P6SM BKN120
     FM270400 17006KT P6SM FEW020 SCT100=



000
FTUS41 KPHI 260540
TAFMIV
TAF
KMIV 260540Z 2606/2706 VRB03KT P6SM SKC
     FM261300 22008KT P6SM SKC
     FM261800 20009G17KT P6SM FEW050
     FM262300 17008KT P6SM SCT150=



000
FTUS41 KPHI 260540
TAFILG
TAF
KILG 260540Z 2606/2706 21006KT P6SM SKC
     FM261600 20011G19KT P6SM FEW050 SCT200
     FM270000 19008KT P6SM BKN150=



000
FTUS41 KPHI 260540
TAFPNE
TAF
KPNE 260540Z 2606/2706 20005KT P6SM SKC
     FM261600 22011G19KT P6SM FEW050 SCT200
     FM270000 20007KT P6SM BKN120=



000
FTUS41 KPHI 260101 AAA
TAFABE
TAF AMD
KABE 260101Z 2601/2624 20008KT P6SM SCT250
     FM260700 VRB03KT P6SM SCT250
     FM261300 22006KT P6SM FEW050
     FM261800 20010G18KT P6SM SCT050=



000
FTUS41 KPHI 260101 AAA
TAFRDG
TAF AMD
KRDG 260101Z 2601/2624 19008KT P6SM SCT250
     FM260700 VRB03KT P6SM SCT250
     FM261300 22006KT P6SM FEW050
     FM261800 20008G16KT P6SM SCT050=



000
FTUS41 KPHI 260100 AAA
TAFPNE
TAF AMD
KPNE 260100Z 2601/2624 21008KT P6SM SCT250
     FM261300 22010G18KT P6SM FEW050=



000
FTUS41 KPHI 260059 AAA
TAFILG
TAF AMD
KILG 260059Z 2601/2624 19008KT P6SM SCT250
     FM261300 19012G20KT P6SM FEW050=



000
FTUS41 KPHI 260059 AAA
TAFPHL
TAF AMD
KPHL 260059Z 2601/2706 20010KT P6SM SCT250
     FM261300 22010G20KT P6SM FEW050
     FM270100 19008KT P6SM SCT050=



000
FTUS41 KPHI 252325
TAFTTN
TAF
KTTN 252325Z 2600/2624 21010G18KT P6SM FEW060
     FM260200 20008KT P6SM SCT250
     FM260700 VRB03KT P6SM SCT250
     FM261300 22008KT P6SM FEW050
     FM261800 21010G18KT P6SM SCT050=



000
FTUS41 KPHI 252325
TAFRDG
TAF
KRDG 252325Z 2600/2624 19010G18KT P6SM FEW060
     FM260200 19008KT P6SM SCT250
     FM260700 VRB03KT P6SM SCT250
     FM261300 22006KT P6SM FEW050
     FM261800 20008G16KT P6SM SCT050=



000
FTUS41 KPHI 252325
TAFABE
TAF
KABE 252325Z 2600/2624 20010G18KT P6SM FEW060
     FM260200 20008KT P6SM SCT250
     FM260700 VRB03KT P6SM SCT250
     FM261300 22006KT P6SM FEW050
     FM261800 20010G18KT P6SM SCT050=



000
FTUS41 KPHI 252325
TAFPNE
TAF
KPNE 252325Z 2600/2624 21012G20KT P6SM FEW060
     FM260300 21008KT P6SM SCT250
     FM261300 22010G18KT P6SM FEW050=



000
FTUS41 KPHI 252325
TAFILG
TAF
KILG 252325Z 2600/2624 18012G20KT P6SM FEW060
     FM260300 19008KT P6SM SCT250
     FM261300 19012G20KT P6SM FEW050=



000
FTUS41 KPHI 252325
TAFACY
TAF
KACY 252325Z 2600/2624 18010G18KT P6SM SCT250
     FM260300 20008KT P6SM SCT250
     FM261300 20012G20KT P6SM FEW050=



000
FTUS41 KPHI 252325
TAFMIV
TAF
KMIV 252325Z 2600/2624 19006KT P6SM SCT250
     FM260300 VRB03KT P6SM SCT250
     FM261300 22008KT P6SM FEW050
     FM261800 19008G16KT P6SM FEW050=



000
FTUS41 KPHI 252325
TAFPHL
TAF
KPHL 252325Z 2600/2706 20012G20KT P6SM FEW060
     FM260300 20010KT P6SM SCT250
     FM261300 22010G20KT P6SM FEW050
     FM270100 19008KT P6SM SCT050=



000
FTUS41 KPHI 252105 AAA
TAFRDG
TAF AMD
KRDG 252105Z 2521/2618 19010G20KT P6SM FEW050 SCT200
     FM260000 19008KT P6SM SCT200
     FM260600 VRB03KT P6SM BKN200=



000
FTUS41 KPHI 252105 AAA
TAFABE
TAF AMD
KABE 252105Z 2521/2618 19012G20KT P6SM FEW050 SCT200
     FM260000 19008KT P6SM SCT200
     FM260600 VRB04KT P6SM BKN200=



000
FTUS41 KPHI 252104 AAA
TAFACY
TAF AMD
KACY 252104Z 2521/2618 18012G20KT P6SM FEW050 SCT200
     FM260000 19010KT P6SM SCT200
     FM260600 19004KT P6SM BKN200=



000
FTUS41 KPHI 252103 AAA
TAFPHL
TAF AMD
KPHL 252103Z 2521/2624 22012G20KT P6SM FEW050 SCT200
     FM260000 18011KT P6SM SCT250
     FM260600 19006KT P6SM BKN200
     FM261500 23012G20KT P6SM FEW050 BKN200=



000
FTUS41 KPHI 251732
TAFILG
TAF
KILG 251732Z 2518/2618 22012G20KT P6SM FEW050 SCT200
     FM260000 18008KT P6SM SCT250=



000
FTUS41 KPHI 251732
TAFPHL
TAF
KPHL 251732Z 2518/2624 22012G20KT P6SM FEW050 SCT200
     FM260000 18011KT P6SM SCT250
     FM260600 19006KT P6SM BKN200
     FM261500 23012G20KT P6SM FEW050 BKN200=



000
FTUS41 KPHI 251732
TAFMIV
TAF
KMIV 251732Z 2518/2618 23012G20KT P6SM FEW050 SCT200
     FM260000 18004KT P6SM SCT200
     FM260600 VRB02KT P6SM BKN200=



000
FTUS41 KPHI 251732
TAFTTN
TAF
KTTN 251732Z 2518/2618 22012G20KT P6SM FEW050 SCT200
     FM260000 20008KT P6SM SCT200
     FM260600 22004KT P6SM BKN200=



000
FTUS41 KPHI 251732
TAFACY
TAF
KACY 251732Z 2518/2618 22012G20KT P6SM FEW050 SCT200
     FM260000 19010KT P6SM SCT200
     FM260600 19004KT P6SM BKN200=



000
FTUS41 KPHI 251732
TAFPNE
TAF
KPNE 251732Z 2518/2618 22012G20KT P6SM FEW050 SCT200
     FM260000 20008KT P6SM SCT200
     FM260600 22004KT P6SM BKN200=



000
FTUS41 KPHI 251732
TAFRDG
TAF
KRDG 251732Z 2518/2618 22010G20KT P6SM FEW050 SCT200
     FM260000 19008KT P6SM SCT200
     FM260600 VRB03KT P6SM BKN200=



000
FTUS41 KPHI 251732
TAFABE
TAF
KABE 251732Z 2518/2618 22010G20KT P6SM FEW050 SCT200
     FM260000 19008KT P6SM SCT200
     FM260600 VRB04KT P6SM BKN200=



000
FTUS41 KPHI 251732
TAFILG
TAF
KILG 251732Z 2518/2618 22012G20KT P6SM FEW050 SCT200
     FM260000 18008KT P6SM SCT250=



000
FTUS41 KPHI 251732
TAFMIV
TAF
KMIV 251732Z 2518/2618 23012G20KT P6SM FEW050 SCT200
     FM260000 18004KT P6SM SCT200
     FM260600 VRB02KT P6SM BKN200=



000
FTUS41 KPHI 251732
TAFPHL
TAF
KPHL 251732Z 2518/2624 22012G20KT P6SM FEW050 SCT200
     FM260000 18011KT P6SM SCT250
     FM260600 19006KT P6SM BKN200
     FM261500 23012G20KT P6SM FEW050 BKN200=



000
FTUS41 KPHI 251732
TAFACY
TAF
KACY 251732Z 2518/2618 22012G20KT P6SM FEW050 SCT200
     FM260000 19010KT P6SM SCT200
     FM260600 19004KT P6SM BKN200=



000
FTUS41 KPHI 251732
TAFTTN
TAF
KTTN 251732Z 2518/2618 22012G20KT P6SM FEW050 SCT200
     FM260000 20008KT P6SM SCT200
     FM260600 22004KT P6SM BKN200=



000
FTUS41 KPHI 251732
TAFPNE
TAF
KPNE 251732Z 2518/2618 22012G20KT P6SM FEW050 SCT200
     FM260000 20008KT P6SM SCT200
     FM260600 22004KT P6SM BKN200=



000
FTUS41 KPHI 251732
TAFRDG
TAF
KRDG 251732Z 2518/2618 22010G20KT P6SM FEW050 SCT200
     FM260000 19008KT P6SM SCT200
     FM260600 VRB03KT P6SM BKN200=



000
FTUS41 KPHI 251732
TAFABE
TAF
KABE 251732Z 2518/2618 22010G20KT P6SM FEW050 SCT200
     FM260000 19008KT P6SM SCT200
     FM260600 VRB04KT P6SM BKN200=



000
FTUS41 KPHI 251500 AAA
TAFPHL
TAF AMD
KPHL 251500Z 2515/2618 22010KT P6SM SCT250
     FM251700 22012G24KT P6SM FEW050 SCT200
     FM260000 18011KT P6SM SCT250
     FM260600 19006KT P6SM BKN200
     FM261500 23012G20KT P6SM FEW050 BKN200=



000
FTUS41 KPHI 251133
TAFABE
TAF
KABE 251133Z 2512/2612 22004KT P6SM BKN200
     FM251600 22010G22KT P6SM FEW050 SCT200
     FM260000 19008KT P6SM SCT200
     FM260600 VRB04KT P6SM BKN200=



000
FTUS41 KPHI 251133
TAFMIV
TAF
KMIV 251133Z 2512/2612 VRB04KT P6SM BKN200
     FM251600 23012G22KT P6SM FEW050 SCT200
     FM260000 18004KT P6SM SCT200
     FM260600 VRB02KT P6SM BKN200=



000
FTUS41 KPHI 251133
TAFPNE
TAF
KPNE 251133Z 2512/2612 19004KT P6SM BKN200
     FM251500 23012G24KT P6SM FEW050 SCT200
     FM260000 20008KT P6SM SCT200
     FM260600 22004KT P6SM BKN200=



000
FTUS41 KPHI 251133
TAFACY
TAF
KACY 251133Z 2512/2612 21011KT P6SM BKN200
     FM251600 23012G22KT P6SM FEW050 SCT200
     FM260000 19010KT P6SM SCT200
     FM260600 19004KT P6SM BKN200=



000
FTUS41 KPHI 251133
TAFPHL
TAF
KPHL 251133Z 2512/2618 19006KT P6SM BKN200
     FM251600 22012G24KT P6SM FEW050 SCT200
     FM260000 18011KT P6SM SCT250
     FM260600 19006KT P6SM BKN200
     FM261500 23012G20KT P6SM FEW050 BKN200=



000
FTUS41 KPHI 251133
TAFTTN
TAF
KTTN 251133Z 2512/2612 19004KT P6SM BKN200
     FM251500 23012G22KT P6SM FEW050 SCT200
     FM260000 20008KT P6SM SCT200
     FM260600 22004KT P6SM BKN200=



000
FTUS41 KPHI 251133
TAFILG
TAF
KILG 251133Z 2512/2612 19004KT P6SM BKN200
     FM251500 22015G24KT P6SM FEW050 SCT200
     FM260000 18008KT P6SM SCT250=



000
FTUS41 KPHI 251133
TAFRDG
TAF
KRDG 251133Z 2512/2612 21004KT P6SM BKN200
     FM251600 23010G22KT P6SM FEW050 SCT200
     FM260000 19008KT P6SM SCT200
     FM260600 VRB03KT P6SM BKN200=



000
FTUS41 KPHI 250833 AAA
TAFPHL
TAF AMD
KPHL 250833Z 2509/2612 19006KT P6SM BKN200
     FM251600 22012G24KT P6SM FEW050 SCT200
     FM260000 18011KT P6SM SCT250
     FM260600 19006KT P6SM SCT250=



000
FTUS41 KPHI 250833 AAA
TAFPHL
TAF AMD
KPHL 250833Z 2509/2612 19006KT P6SM BKN200
     FM251600 22012G24KT P6SM FEW050 SCT200
     FM260000 18011KT P6SM SCT250
     FM260600 19006KT P6SM SCT250=



000
FTUS41 KPHI 250539
TAFRDG
TAF
KRDG 250539Z 2506/2606 VRB03KT P6SM BKN200
     FM251300 20007KT P6SM BKN200
     FM251600 23010G20KT P6SM FEW050 SCT200
     FM260000 19008KT P6SM SCT200=



000
FTUS41 KPHI 250539
TAFABE
TAF
KABE 250539Z 2506/2606 VRB03KT P6SM BKN200
     FM251300 20007KT P6SM BKN200
     FM251600 22010G20KT P6SM FEW050 SCT200
     FM260000 19008KT P6SM SCT200=



000
FTUS41 KPHI 250539
TAFMIV
TAF
KMIV 250539Z 2506/2606 VRB04KT P6SM BKN200
     FM251600 23012G20KT P6SM FEW050 SCT200
     FM260000 18004KT P6SM SCT200=



000
FTUS41 KPHI 250539
TAFACY
TAF
KACY 250539Z 2506/2606 19007KT P6SM SCT200
     FM251200 22012KT P6SM BKN200
     FM251600 23012G20KT P6SM FEW050 SCT200
     FM260000 19010KT P6SM SCT200=



000
FTUS41 KPHI 250539
TAFTTN
TAF
KTTN 250539Z 2506/2606 20004KT P6SM BKN200
     FM251500 23012G20KT P6SM FEW050 SCT200
     FM260000 20008KT P6SM SCT200=



000
FTUS41 KPHI 250539
TAFPNE
TAF
KPNE 250539Z 2506/2606 20004KT P6SM BKN200
     FM251500 23012G20KT P6SM FEW050 SCT200
     FM260000 20008KT P6SM SCT200=



000
FTUS41 KPHI 250539
TAFILG
TAF
KILG 250539Z 2506/2606 19004KT P6SM BKN200
     FM251500 22015G22KT P6SM FEW050 SCT200
     FM260000 18008KT P6SM SCT250=



000
FTUS41 KPHI 250539
TAFPHL
TAF
KPHL 250539Z 2506/2612 20006KT P6SM BKN200
     FM251600 22012G24KT P6SM FEW050 SCT200
     FM260000 18011KT P6SM SCT250
     FM260600 19006KT P6SM SCT250=



000
FTUS41 KPHI 242320
TAFPNE
TAF
KPNE 242320Z 2500/2524 20009KT P6SM BKN200
     FM251500 23012G20KT P6SM FEW050 SCT200=



000
FTUS41 KPHI 242320
TAFRDG
TAF
KRDG 242320Z 2500/2524 VRB05KT P6SM BKN200
     FM251300 20007KT P6SM BKN200
     FM251600 23010G20KT P6SM FEW050 SCT200=



000
FTUS41 KPHI 242320
TAFTTN
TAF
KTTN 242320Z 2500/2524 21004KT P6SM BKN200
     FM251500 23012G20KT P6SM FEW050 SCT200=



000
FTUS41 KPHI 242320
TAFILG
TAF
KILG 242320Z 2500/2524 VRB06KT P6SM SCT200
     FM250600 19004KT P6SM BKN200
     FM251500 22015G22KT P6SM FEW050 SCT200=



000
FTUS41 KPHI 242320
TAFILG
TAF
KILG 242320Z 2500/2524 VRB06KT P6SM SCT200
     FM250600 19004KT P6SM BKN200
     FM251500 22015G22KT P6SM FEW050 SCT200=



000
FTUS41 KPHI 242320
TAFPHL
TAF
KPHL 242320Z 2500/2606 20006KT P6SM BKN200
     FM251500 22015G22KT P6SM FEW050 SCT200
     FM252200 18011KT P6SM SCT250=



000
FTUS41 KPHI 242320
TAFMIV
TAF
KMIV 242320Z 2500/2524 VRB04KT P6SM BKN200
     FM251600 23012G20KT P6SM FEW050 SCT200=



000
FTUS41 KPHI 242320
TAFPNE
TAF
KPNE 242320Z 2500/2524 20009KT P6SM BKN200
     FM251500 23012G20KT P6SM FEW050 SCT200=



000
FTUS41 KPHI 242320
TAFABE
TAF
KABE 242320Z 2500/2524 20004KT P6SM BKN200
     FM250600 VRB04KT P6SM BKN200
     FM251500 22010G20KT P6SM FEW050 SCT200=



000
FTUS41 KPHI 242320
TAFMIV
TAF
KMIV 242320Z 2500/2524 VRB04KT P6SM BKN200
     FM251600 23012G20KT P6SM FEW050 SCT200=



000
FTUS41 KPHI 242320
TAFACY
TAF
KACY 242320Z 2500/2524 19007KT P6SM SCT200
     FM251200 22012KT P6SM BKN200
     FM251600 23012G20KT P6SM FEW050 SCT200=



000
FTUS41 KPHI 242320
TAFABE
TAF
KABE 242320Z 2500/2524 20004KT P6SM BKN200
     FM250600 VRB04KT P6SM BKN200
     FM251500 22010G20KT P6SM FEW050 SCT200=



000
FTUS41 KPHI 242320
TAFACY
TAF
KACY 242320Z 2500/2524 19007KT P6SM SCT200
     FM251200 22012KT P6SM BKN200
     FM251600 23012G20KT P6SM FEW050 SCT200=



000
FTUS41 KPHI 242320
TAFRDG
TAF
KRDG 242320Z 2500/2524 VRB05KT P6SM BKN200
     FM251300 20007KT P6SM BKN200
     FM251600 23010G20KT P6SM FEW050 SCT200=



000
FTUS41 KPHI 242320
TAFPHL
TAF
KPHL 242320Z 2500/2606 20006KT P6SM BKN200
     FM251500 22015G22KT P6SM FEW050 SCT200
     FM252200 18011KT P6SM SCT250=



000
FTUS41 KPHI 242320
TAFTTN
TAF
KTTN 242320Z 2500/2524 21004KT P6SM BKN200
     FM251500 23012G20KT P6SM FEW050 SCT200=



000
FTUS41 KPHI 242019 AAA
TAFPHL
TAF AMD
KPHL 242019Z 2420/2524 22010KT P6SM FEW060 SCT250
     FM250200 19006KT P6SM BKN200
     FM251500 22015G22KT P6SM FEW050 SCT200=



000
FTUS41 KPHI 242019 AAA
TAFPHL
TAF AMD
KPHL 242019Z 2420/2524 22010KT P6SM FEW060 SCT250
     FM250200 19006KT P6SM BKN200
     FM251500 22015G22KT P6SM FEW050 SCT200=



000
FTUS41 KPHI 242014 AAA
TAFILG
TAF AMD
KILG 242014Z 2420/2518 22009KT P6SM FEW060 BKN250
     FM250200 18005KT P6SM BKN200
     FM251500 22015G22KT P6SM FEW050 SCT200=



000
FTUS41 KPHI 241731
TAFACY
TAF
KACY 241731Z 2418/2518 20010G18KT P6SM FEW060 BKN250
     FM250000 19008KT P6SM BKN200
     FM251500 23012G20KT P6SM FEW050 SCT200=



000
FTUS41 KPHI 241731
TAFRDG
TAF
KRDG 241731Z 2418/2518 24008KT P6SM BKN250
     FM250200 VRB02KT P6SM BKN200
      TEMPO 2509/2512 4SM BR
     FM251300 20005KT P6SM SCT250
     FM251600 23010G20KT P6SM FEW050 SCT200=



000
FTUS41 KPHI 241731
TAFPNE
TAF
KPNE 241731Z 2418/2518 24009KT P6SM FEW060 BKN250
     FM250200 19004KT P6SM BKN200
     FM251500 23012G20KT P6SM FEW050 SCT200=



000
FTUS41 KPHI 241731
TAFILG
TAF
KILG 241731Z 2418/2518 21005KT P6SM FEW060 BKN250
     FM250200 18005KT P6SM BKN200
     FM251500 22015G22KT P6SM FEW050 SCT200=



000
FTUS41 KPHI 241731
TAFABE
TAF
KABE 241731Z 2418/2518 24008KT P6SM BKN250
     FM250000 20004KT P6SM BKN200
     FM251500 22010G20KT P6SM FEW050 SCT200=



000
FTUS41 KPHI 241731
TAFPHL
TAF
KPHL 241731Z 2418/2524 24010KT P6SM FEW050 BKN250
     FM250200 19006KT P6SM BKN200
     FM251500 22015G22KT P6SM FEW050 SCT200=



000
FTUS41 KPHI 241731
TAFTTN
TAF
KTTN 241731Z 2418/2518 22008KT P6SM FEW060 BKN250
     FM250000 21004KT P6SM BKN200
     FM251500 23012G20KT P6SM FEW050 SCT200=



000
FTUS41 KPHI 241731
TAFMIV
TAF
KMIV 241731Z 2418/2518 23008KT P6SM FEW060 BKN250
     FM250200 VRB02KT P6SM BKN200
     FM251500 23012G20KT P6SM FEW050 SCT200=



000
FTUS41 KPHI 241731
TAFTTN
TAF
KTTN 241731Z 2418/2518 22008KT P6SM FEW060 BKN250
     FM250000 21004KT P6SM BKN200
     FM251500 23012G20KT P6SM FEW050 SCT200=



000
FTUS41 KPHI 241731
TAFABE
TAF
KABE 241731Z 2418/2518 24008KT P6SM BKN250
     FM250000 20004KT P6SM BKN200
     FM251500 22010G20KT P6SM FEW050 SCT200=



000
FTUS41 KPHI 241731
TAFPHL
TAF
KPHL 241731Z 2418/2524 24010KT P6SM FEW050 BKN250
     FM250200 19006KT P6SM BKN200
     FM251500 22015G22KT P6SM FEW050 SCT200=



000
FTUS41 KPHI 241731
TAFILG
TAF
KILG 241731Z 2418/2518 21005KT P6SM FEW060 BKN250
     FM250200 18005KT P6SM BKN200
     FM251500 22015G22KT P6SM FEW050 SCT200=



000
FTUS41 KPHI 241731
TAFMIV
TAF
KMIV 241731Z 2418/2518 23008KT P6SM FEW060 BKN250
     FM250200 VRB02KT P6SM BKN200
     FM251500 23012G20KT P6SM FEW050 SCT200=



000
FTUS41 KPHI 241731
TAFACY
TAF
KACY 241731Z 2418/2518 20010G18KT P6SM FEW060 BKN250
     FM250000 19008KT P6SM BKN200
     FM251500 23012G20KT P6SM FEW050 SCT200=



000
FTUS41 KPHI 241731
TAFPNE
TAF
KPNE 241731Z 2418/2518 24009KT P6SM FEW060 BKN250
     FM250200 19004KT P6SM BKN200
     FM251500 23012G20KT P6SM FEW050 SCT200=



000
FTUS41 KPHI 241731
TAFRDG
TAF
KRDG 241731Z 2418/2518 24008KT P6SM BKN250
     FM250200 VRB02KT P6SM BKN200
      TEMPO 2509/2512 4SM BR
     FM251300 20005KT P6SM SCT250
     FM251600 23010G20KT P6SM FEW050 SCT200=



000
FTUS41 KPHI 241456 AAA
TAFPHL
TAF AMD
KPHL 241456Z 2415/2518 23012KT P6SM SCT250
     FM250200 19006KT P6SM BKN250
     FM251500 23015G25KT P6SM FEW050 BKN200=



000
FTUS41 KPHI 241127
TAFMIV
TAF
KMIV 241127Z 2412/2512 00000KT P6SM SKC
     FM241400 22006KT P6SM SKC
     FM241600 23008G18KT P6SM FEW050 FEW250
     FM242200 21006KT P6SM FEW250
     FM250200 VRB02KT P6SM BKN250=



000
FTUS41 KPHI 241127
TAFACY
TAF
KACY 241127Z 2412/2512 19005KT P6SM SKC
     FM241600 23010G18KT P6SM FEW050 FEW250
     FM250000 18008KT P6SM BKN250=



000
FTUS41 KPHI 241127
TAFILG
TAF
KILG 241127Z 2412/2512 VRB03KT P6SM SKC
     FM241500 21010KT P6SM FEW250
     FM250200 18005KT P6SM BKN250=



000
FTUS41 KPHI 241127
TAFPNE
TAF
KPNE 241127Z 2412/2512 VRB03KT P6SM SKC
     FM241500 23011KT P6SM FEW250
     FM250200 19004KT P6SM BKN250=



000
FTUS41 KPHI 241127
TAFTTN
TAF
KTTN 241127Z 2412/2512 22004KT P6SM SKC
     FM241500 25010KT P6SM FEW250
     FM250000 21004KT P6SM BKN250=



000
FTUS41 KPHI 241127
TAFMIV
TAF
KMIV 241127Z 2412/2512 00000KT P6SM SKC
     FM241400 22006KT P6SM SKC
     FM241600 23008G18KT P6SM FEW050 FEW250
     FM242200 21006KT P6SM FEW250
     FM250200 VRB02KT P6SM BKN250=



000
FTUS41 KPHI 241127
TAFPHL
TAF
KPHL 241127Z 2412/2518 22006KT P6SM FEW250
     FM241500 23013KT P6SM FEW250
     FM250200 19006KT P6SM BKN250
     FM251500 23015G25KT P6SM FEW050 BKN200=



000
FTUS41 KPHI 241127
TAFRDG
TAF
KRDG 241127Z 2412/2512 VRB02KT P6SM SKC
     FM241500 24010KT P6SM FEW250
     FM250000 VRB02KT P6SM BKN250=



000
FTUS41 KPHI 241127
TAFABE
TAF
KABE 241127Z 2412/2512 VRB02KT P6SM SKC
     FM241500 25010KT P6SM FEW250
     FM250000 20004KT P6SM BKN250=



000
FTUS41 KPHI 241127
TAFACY
TAF
KACY 241127Z 2412/2512 19005KT P6SM SKC
     FM241600 23010G18KT P6SM FEW050 FEW250
     FM250000 18008KT P6SM BKN250=



000
FTUS41 KPHI 241127
TAFTTN
TAF
KTTN 241127Z 2412/2512 22004KT P6SM SKC
     FM241500 25010KT P6SM FEW250
     FM250000 21004KT P6SM BKN250=



000
FTUS41 KPHI 241127
TAFRDG
TAF
KRDG 241127Z 2412/2512 VRB02KT P6SM SKC
     FM241500 24010KT P6SM FEW250
     FM250000 VRB02KT P6SM BKN250=



000
FTUS41 KPHI 241127
TAFPHL
TAF
KPHL 241127Z 2412/2518 22006KT P6SM FEW250
     FM241500 23013KT P6SM FEW250
     FM250200 19006KT P6SM BKN250
     FM251500 23015G25KT P6SM FEW050 BKN200=



000
FTUS41 KPHI 241127
TAFPNE
TAF
KPNE 241127Z 2412/2512 VRB03KT P6SM SKC
     FM241500 23011KT P6SM FEW250
     FM250200 19004KT P6SM BKN250=



000
FTUS41 KPHI 241127
TAFABE
TAF
KABE 241127Z 2412/2512 VRB02KT P6SM SKC
     FM241500 25010KT P6SM FEW250
     FM250000 20004KT P6SM BKN250=



000
FTUS41 KPHI 241127
TAFILG
TAF
KILG 241127Z 2412/2512 VRB03KT P6SM SKC
     FM241500 21010KT P6SM FEW250
     FM250200 18005KT P6SM BKN250=



    US Dept of Commerce
    National Oceanic and Atmospheric Administration
    National Weather Service
    1325 East West Highway
    Silver Spring, MD 20910
    Page Author: NWS Internet Services Team
Disclaimer
Information Quality
Credits
Glossary
Privacy Policy
Freedom of Information Act (FOIA)
About Us
Career Opportunities